Time;durP1;ratioP1;P1;durP2;ratioP2;P2;SDS_P1;SDS_P2;PMS_P1;PMS_P2;Temp;Humidity;BMP_temperature;BMP_pressure;BME280_temperature;BME280_humidity;BME280_pressure;Samples;Min_cycle;Max_cycle;Signal;HPM_P1;HPM_P2
2022/12/07 00:01:57;;;;;;;;;55.75;47.75;;;;;-147.17;100.00;-15917.19;4994311;28;51110;-38
2022/12/07 00:04:22;;;;;;;;;47.50;40.25;;;;;-147.17;100.00;-15917.19;5013048;28;51281;-38
2022/12/07 00:06:52;;;;;;;;;56.00;44.50;;;;;-147.17;100.00;-15917.19;5012495;28;51215;-38
2022/12/07 00:09:17;;;;;;;;;55.25;46.25;;;;;-147.17;100.00;-15917.19;5012265;28;51001;-37
2022/12/07 00:11:44;;;;;;;;;53.25;44.75;;;;;-147.17;100.00;-15917.19;5016881;28;51177;-39
2022/12/07 00:14:12;;;;;;;;;59.25;47.00;;;;;-147.17;100.00;-15917.19;5012981;28;51083;-39
2022/12/07 00:16:38;;;;;;;;;63.25;48.25;;;;;-147.17;100.00;-15917.19;5012135;28;51336;-40
2022/12/07 00:19:04;;;;;;;;;49.75;42.50;;;;;-147.17;100.00;-15917.19;5000000;28;51926;-39
2022/12/07 00:21:32;;;;;;;;;57.50;44.50;;;;;-147.17;100.00;-15917.19;5010491;28;51244;-39
2022/12/07 00:23:58;;;;;;;;;52.75;45.00;;;;;-147.17;100.00;-15917.19;5009264;28;51216;-40
2022/12/07 00:26:29;;;;;;;;;50.50;43.25;;;;;-147.17;100.00;-15917.19;5016247;28;51152;-39
2022/12/07 00:28:58;;;;;;;;;52.50;44.00;;;;;-147.17;100.00;-15917.19;5015134;28;51966;-39
2022/12/07 00:31:26;;;;;;;;;58.25;44.75;;;;;-147.17;100.00;-15917.19;5014320;28;51383;-39
2022/12/07 00:33:52;;;;;;;;;50.00;44.25;;;;;-147.17;100.00;-15917.19;5015496;28;51092;-39
2022/12/07 00:36:20;;;;;;;;;53.00;43.75;;;;;-147.17;100.00;-15917.19;5015235;28;51180;-39
2022/12/07 00:38:45;;;;;;;;;47.75;42.50;;;;;-147.17;100.00;-15917.19;5015134;28;51118;-39
2022/12/07 00:41:19;;;;;;;;;60.75;48.25;;;;;-147.17;100.00;-15917.19;5014678;28;51020;-39
2022/12/07 00:43:46;;;;;;;;;55.25;46.00;;;;;-147.17;100.00;-15917.19;5015500;28;51093;-39
2022/12/07 00:46:14;;;;;;;;;46.25;42.25;;;;;-147.17;100.00;-15917.19;5015487;28;50986;-44
2022/12/07 00:48:39;;;;;;;;;50.00;44.00;;;;;-147.17;100.00;-15917.19;5013717;28;52555;-38
2022/12/07 00:51:06;;;;;;;;;48.75;40.00;;;;;-147.17;100.00;-15917.19;5014545;28;50995;-37
2022/12/07 00:53:33;;;;;;;;;54.75;44.25;;;;;-147.17;100.00;-15917.19;5003753;28;51133;-38
2022/12/07 00:56:05;;;;;;;;;55.25;46.50;;;;;-147.17;100.00;-15917.19;5015491;28;51046;-38
2022/12/07 00:58:30;;;;;;;;;60.25;48.00;;;;;-147.17;100.00;-15917.19;5015043;28;51989;-38
2022/12/07 01:01:00;;;;;;;;;57.25;46.50;;;;;-147.17;100.00;-15917.19;5011089;28;51185;-38
2022/12/07 01:03:25;;;;;;;;;52.50;45.75;;;;;-147.17;100.00;-15917.19;5014724;28;50940;-38
2022/12/07 01:05:53;;;;;;;;;54.50;47.00;;;;;-147.17;100.00;-15917.19;5017462;28;50928;-37
2022/12/07 01:08:19;;;;;;;;;56.75;46.25;;;;;-147.17;100.00;-15917.19;5012774;28;51183;-38
2022/12/07 01:10:44;;;;;;;;;51.00;45.50;;;;;-147.17;100.00;-15917.19;5015256;28;51009;-38
2022/12/07 01:13:10;;;;;;;;;51.50;43.25;;;;;-147.17;100.00;-15917.19;5014414;28;51316;-37
2022/12/07 01:15:43;;;;;;;;;45.75;39.25;;;;;-147.17;100.00;-15917.19;5014886;28;51206;-38
2022/12/07 01:18:08;;;;;;;;;61.25;48.00;;;;;-147.17;100.00;-15917.19;5014235;28;52334;-37
2022/12/07 01:20:34;;;;;;;;;55.50;47.00;;;;;-147.17;100.00;-15917.19;5014800;28;51093;-38
2022/12/07 01:23:00;;;;;;;;;55.00;46.00;;;;;-147.17;100.00;-15917.19;5014012;28;51132;-37
2022/12/07 01:25:25;;;;;;;;;55.75;45.75;;;;;-147.17;100.00;-15917.19;5014387;28;51079;-38
2022/12/07 01:27:50;;;;;;;;;57.25;46.00;;;;;-147.17;100.00;-15917.19;5014019;28;51123;-37
2022/12/07 01:30:16;;;;;;;;;56.25;48.50;;;;;-147.17;100.00;-15917.19;5014322;28;51013;-38
2022/12/07 01:32:41;;;;;;;;;46.25;42.25;;;;;-147.17;100.00;-15917.19;5014711;28;51220;-38
2022/12/07 01:35:07;;;;;;;;;59.50;49.00;;;;;-147.17;100.00;-15917.19;5009970;28;51094;-38
2022/12/07 01:37:37;;;;;;;;;47.25;42.50;;;;;-147.17;100.00;-15917.19;5012876;28;53083;-38
2022/12/07 01:40:05;;;;;;;;;49.75;43.50;;;;;-147.17;100.00;-15917.19;5014587;28;51085;-38
2022/12/07 01:42:31;;;;;;;;;57.75;46.25;;;;;-147.17;100.00;-15917.19;4996860;28;51070;-38
2022/12/07 01:45:18;;;;;;;;;48.00;42.25;;;;;-147.17;100.00;-15917.19;5014166;28;51359;-38
2022/12/07 01:47:51;;;;;;;;;50.75;41.75;;;;;-147.17;100.00;-15917.19;5014040;28;50967;-38
2022/12/07 01:50:16;;;;;;;;;51.50;43.50;;;;;-147.17;100.00;-15917.19;5008041;28;51099;-37
2022/12/07 01:52:46;;;;;;;;;58.50;46.75;;;;;-147.17;100.00;-15917.19;5018994;28;51267;-37
2022/12/07 01:55:14;;;;;;;;;46.50;42.00;;;;;-147.17;100.00;-15917.19;5014627;28;51334;-38
2022/12/07 01:57:45;;;;;;;;;47.25;42.00;;;;;-147.17;100.00;-15917.19;5014246;28;51153;-38
2022/12/07 02:00:12;;;;;;;;;52.50;43.00;;;;;-147.17;100.00;-15917.19;5001757;28;51206;-38
2022/12/07 02:02:43;;;;;;;;;53.75;44.00;;;;;-147.17;100.00;-15917.19;5013172;28;51050;-38
2022/12/07 02:05:09;;;;;;;;;55.50;41.75;;;;;-147.17;100.00;-15917.19;5004009;28;51185;-38
2022/12/07 02:07:37;;;;;;;;;53.25;47.00;;;;;-147.17;100.00;-15917.19;5013687;28;52066;-38
2022/12/07 02:10:13;;;;;;;;;48.75;43.25;;;;;-147.17;100.00;-15917.19;5014999;28;51020;-38
2022/12/07 02:12:38;;;;;;;;;51.75;44.00;;;;;-147.17;100.00;-15917.19;4997046;28;51388;-38
2022/12/07 02:15:04;;;;;;;;;48.00;42.75;;;;;-147.17;100.00;-15917.19;5012552;28;51383;-38
2022/12/07 02:17:41;;;;;;;;;43.00;40.25;;;;;-147.17;100.00;-15917.19;5013218;28;51174;-38
2022/12/07 02:20:19;;;;;;;;;52.50;44.25;;;;;-147.17;100.00;-15917.19;5005292;28;50994;-38
2022/12/07 02:22:44;;;;;;;;;47.75;40.75;;;;;-147.17;100.00;-15917.19;5013806;28;50957;-38
2022/12/07 02:25:47;;;;;;;;;50.00;42.50;;;;;-147.17;100.00;-15917.19;5013507;28;50927;-38
2022/12/07 02:28:50;;;;;;;;;57.00;46.25;;;;;-147.17;100.00;-15917.19;5005367;28;52838;-38
2022/12/07 02:31:21;;;;;;;;;55.75;46.75;;;;;-147.17;100.00;-15917.19;4971497;28;51186;-38
2022/12/07 02:33:57;;;;;;;;;47.50;42.25;;;;;-147.17;100.00;-15917.19;5007316;28;51082;-38
2022/12/07 02:36:32;;;;;;;;;53.75;44.75;;;;;-147.17;100.00;-15917.19;5013362;28;51089;-38
2022/12/07 02:39:06;;;;;;;;;54.25;45.50;;;;;-147.17;100.00;-15917.19;5012835;28;51136;-38
2022/12/07 02:41:37;;;;;;;;;57.00;45.50;;;;;-147.17;100.00;-15917.19;5003895;28;50891;-38
2022/12/07 02:44:12;;;;;;;;;59.75;45.25;;;;;-147.17;100.00;-15917.19;5013303;28;51190;-38
2022/12/07 02:46:46;;;;;;;;;53.00;45.00;;;;;-147.17;100.00;-15917.19;5005080;28;50947;-38
2022/12/07 02:49:12;;;;;;;;;63.25;51.00;;;;;-147.17;100.00;-15917.19;4994846;28;52241;-38
2022/12/07 02:51:46;;;;;;;;;62.50;51.00;;;;;-147.17;100.00;-15917.19;5013555;28;51110;-38
2022/12/07 02:54:14;;;;;;;;;67.50;52.75;;;;;-147.17;100.00;-15917.19;5013745;28;51206;-38
2022/12/07 02:57:07;;;;;;;;;77.50;62.00;;;;;-147.17;100.00;-15917.19;5020124;28;51354;-38
2022/12/07 02:59:52;;;;;;;;;77.75;62.25;;;;;-147.17;100.00;-15917.19;5013375;28;51942;-38
2022/12/07 03:02:26;;;;;;;;;70.50;58.75;;;;;-147.17;100.00;-15917.19;5012866;28;51243;-38
2022/12/07 03:05:11;;;;;;;;;59.25;47.00;;;;;-147.17;100.00;-15917.19;5013360;28;51045;-38
2022/12/07 03:07:37;;;;;;;;;47.50;41.75;;;;;-147.17;100.00;-15917.19;5014468;28;51036;-38
2022/12/07 03:10:27;;;;;;;;;45.25;40.75;;;;;-147.17;100.00;-15917.19;5012282;28;52417;-38
2022/12/07 03:13:02;;;;;;;;;49.00;42.25;;;;;-147.17;100.00;-15917.19;5012843;28;50903;-38
2022/12/07 03:15:35;;;;;;;;;45.50;40.75;;;;;-147.17;100.00;-15917.19;5012380;28;51034;-39
2022/12/07 03:18:05;;;;;;;;;44.00;39.75;;;;;-147.17;100.00;-15917.19;5013555;28;51312;-38
2022/12/07 03:20:34;;;;;;;;;45.50;39.50;;;;;-147.17;100.00;-15917.19;5011849;28;51398;-38
2022/12/07 03:23:00;;;;;;;;;37.25;35.00;;;;;-147.17;100.00;-15917.19;5012876;28;51001;-38
2022/12/07 03:25:27;;;;;;;;;36.25;34.00;;;;;-147.17;100.00;-15917.19;5012957;28;50856;-39
2022/12/07 03:27:57;;;;;;;;;47.75;37.00;;;;;-147.17;100.00;-15917.19;5013287;28;51062;-39
2022/12/07 03:30:29;;;;;;;;;40.00;34.75;;;;;-147.17;100.00;-15917.19;5011381;28;52052;-38
2022/12/07 03:33:22;;;;;;;;;41.00;37.00;;;;;-147.17;100.00;-15917.19;5012229;28;51329;-39
2022/12/07 03:36:26;;;;;;;;;36.25;35.50;;;;;-147.17;100.00;-15917.19;5009170;28;51161;-39
2022/12/07 03:39:02;;;;;;;;;45.50;37.75;;;;;-147.17;100.00;-15917.19;5012416;28;50861;-38
2022/12/07 03:41:33;;;;;;;;;41.75;38.75;;;;;-147.17;100.00;-15917.19;5013089;28;52174;-39
2022/12/07 03:43:59;;;;;;;;;47.75;37.25;;;;;-147.17;100.00;-15917.19;5013469;28;51108;-38
2022/12/07 03:46:40;;;;;;;;;42.75;37.00;;;;;-147.17;100.00;-15917.19;5010957;28;51345;-38
2022/12/07 03:49:34;;;;;;;;;38.00;32.25;;;;;-147.17;100.00;-15917.19;5012737;28;51069;-39
2022/12/07 03:52:24;;;;;;;;;44.00;38.75;;;;;-147.17;100.00;-15917.19;5012076;28;51720;-39
2022/12/07 03:54:56;;;;;;;;;31.50;31.25;;;;;-147.17;100.00;-15917.19;5001925;28;51126;-39
2022/12/07 03:57:25;;;;;;;;;36.25;33.75;;;;;-147.17;100.00;-15917.19;5013222;28;51050;-38
2022/12/07 03:59:51;;;;;;;;;40.50;39.25;;;;;-147.17;100.00;-15917.19;5012349;28;51151;-38
2022/12/07 04:02:17;;;;;;;;;36.50;34.25;;;;;-147.17;100.00;-15917.19;5011303;28;52308;-39
2022/12/07 04:04:43;;;;;;;;;42.50;39.00;;;;;-147.17;100.00;-15917.19;5012429;28;51019;-39
2022/12/07 04:07:08;;;;;;;;;41.00;37.50;;;;;-147.17;100.00;-15917.19;5012216;28;51275;-39
2022/12/07 04:09:34;;;;;;;;;30.25;28.25;;;;;-147.17;100.00;-15917.19;5011342;28;51219;-38
2022/12/07 04:11:59;;;;;;;;;37.50;34.00;;;;;-147.17;100.00;-15917.19;5011814;28;51743;-39
2022/12/07 04:14:25;;;;;;;;;38.50;36.75;;;;;-147.17;100.00;-15917.19;5012179;28;51100;-38
2022/12/07 04:16:59;;;;;;;;;36.75;31.75;;;;;-147.17;100.00;-15917.19;5007027;28;51674;-39
2022/12/07 04:19:29;;;;;;;;;37.00;34.00;;;;;-147.17;100.00;-15917.19;5010092;28;50900;-38
2022/12/07 04:21:56;;;;;;;;;33.25;31.50;;;;;-147.17;100.00;-15917.19;5011021;28;51830;-38
2022/12/07 04:24:22;;;;;;;;;35.50;30.00;;;;;-147.17;100.00;-15917.19;5011269;28;51455;-38
2022/12/07 04:26:47;;;;;;;;;37.75;34.50;;;;;-147.17;100.00;-15917.19;5010512;28;51343;-38
2022/12/07 04:29:14;;;;;;;;;29.75;25.50;;;;;-147.17;100.00;-15917.19;5011800;28;51342;-38
2022/12/07 04:31:39;;;;;;;;;27.75;27.75;;;;;-147.17;100.00;-15917.19;5010577;28;51995;-38
2022/12/07 04:34:06;;;;;;;;;35.75;34.50;;;;;-147.17;100.00;-15917.19;5013134;28;51033;-38
2022/12/07 04:36:32;;;;;;;;;31.25;27.00;;;;;-147.17;100.00;-15917.19;5011372;28;51291;-38
2022/12/07 04:38:58;;;;;;;;;32.25;31.50;;;;;-147.17;100.00;-15917.19;5011939;28;51161;-39
2022/12/07 04:41:27;;;;;;;;;28.00;26.75;;;;;-147.17;100.00;-15917.19;5010458;28;52015;-38
2022/12/07 04:43:57;;;;;;;;;30.25;27.25;;;;;-147.17;100.00;-15917.19;5011215;28;51121;-38
2022/12/07 04:46:25;;;;;;;;;29.25;23.50;;;;;-147.17;100.00;-15917.19;5011220;28;51201;-39
2022/12/07 04:48:51;;;;;;;;;35.75;33.50;;;;;-147.17;100.00;-15917.19;5011447;28;50929;-38
2022/12/07 04:51:22;;;;;;;;;32.25;25.25;;;;;-147.17;100.00;-15917.19;4996018;28;51828;-39
2022/12/07 04:53:47;;;;;;;;;34.25;31.00;;;;;-147.17;100.00;-15917.19;5011704;28;51056;-38
2022/12/07 04:56:14;;;;;;;;;36.50;33.75;;;;;-147.17;100.00;-15917.19;5010785;28;51184;-38
2022/12/07 04:58:40;;;;;;;;;36.00;32.00;;;;;-147.17;100.00;-15917.19;5012433;28;50960;-39
2022/12/07 05:01:05;;;;;;;;;32.25;28.00;;;;;-147.17;100.00;-15917.19;5010361;28;52420;-38
2022/12/07 05:03:31;;;;;;;;;31.25;25.00;;;;;-147.17;100.00;-15917.19;5011483;28;50877;-38
2022/12/07 05:05:56;;;;;;;;;34.25;31.75;;;;;-147.17;100.00;-15917.19;5010870;28;50944;-44
2022/12/07 05:08:21;;;;;;;;;33.50;29.25;;;;;-147.17;100.00;-15917.19;5012497;28;51131;-38
2022/12/07 05:10:48;;;;;;;;;35.00;30.50;;;;;-147.17;100.00;-15917.19;5010227;28;52166;-38
2022/12/07 05:13:14;;;;;;;;;29.50;28.50;;;;;-147.17;100.00;-15917.19;5014879;28;50981;-38
2022/12/07 05:15:39;;;;;;;;;35.75;32.00;;;;;-147.17;100.00;-15917.19;5014122;28;51561;-38
2022/12/07 05:18:04;;;;;;;;;31.00;31.00;;;;;-147.17;100.00;-15917.19;5015727;28;51081;-38
2022/12/07 05:20:30;;;;;;;;;40.75;39.00;;;;;-147.17;100.00;-15917.19;5014318;28;51166;-39
2022/12/07 05:22:55;;;;;;;;;27.75;25.50;;;;;-147.17;100.00;-15917.19;5014534;28;51023;-39
2022/12/07 05:25:20;;;;;;;;;34.25;28.75;;;;;-147.17;100.00;-15917.19;5014184;28;51031;-38
2022/12/07 05:27:47;;;;;;;;;27.50;27.25;;;;;-147.17;100.00;-15917.19;5013810;28;51067;-38
2022/12/07 05:30:12;;;;;;;;;28.00;24.00;;;;;-147.17;100.00;-15917.19;5013974;28;53262;-38
2022/12/07 05:32:38;;;;;;;;;24.25;23.75;;;;;-147.17;100.00;-15917.19;5014193;28;50996;-38
2022/12/07 05:35:03;;;;;;;;;31.25;27.25;;;;;-147.17;100.00;-15917.19;5014477;28;51086;-39
2022/12/07 05:37:29;;;;;;;;;26.00;23.75;;;;;-147.17;100.00;-15917.19;5015861;28;50917;-38
2022/12/07 05:39:54;;;;;;;;;30.25;26.25;;;;;-147.17;100.00;-15917.19;5014618;28;51151;-39
2022/12/07 05:42:19;;;;;;;;;31.75;25.00;;;;;-147.17;100.00;-15917.19;5008854;28;51021;-38
2022/12/07 05:44:46;;;;;;;;;29.25;28.00;;;;;-147.17;100.00;-15917.19;5013333;28;51515;-38
2022/12/07 05:47:13;;;;;;;;;31.25;28.75;;;;;-147.17;100.00;-15917.19;5014250;28;51066;-38
2022/12/07 05:49:39;;;;;;;;;31.50;26.75;;;;;-147.17;100.00;-15917.19;5014073;28;51759;-39
2022/12/07 05:52:04;;;;;;;;;26.50;25.00;;;;;-147.17;100.00;-15917.19;5014166;28;51002;-38
2022/12/07 05:54:30;;;;;;;;;24.00;23.75;;;;;-147.17;100.00;-15917.19;5013587;28;51066;-38
2022/12/07 05:56:55;;;;;;;;;27.25;23.75;;;;;-147.17;100.00;-15917.19;5015402;28;51189;-38
2022/12/07 05:59:24;;;;;;;;;30.00;24.75;;;;;-147.17;100.00;-15917.19;5006411;28;50991;-38
2022/12/07 06:01:55;;;;;;;;;26.50;24.25;;;;;-147.17;100.00;-15917.19;5010197;28;51017;-38
2022/12/07 06:04:22;;;;;;;;;25.00;25.00;;;;;-147.17;100.00;-15917.19;5014835;28;51120;-38
2022/12/07 06:06:47;;;;;;;;;28.00;26.50;;;;;-147.17;100.00;-15917.19;5015181;28;51037;-38
2022/12/07 06:09:14;;;;;;;;;26.00;23.75;;;;;-147.17;100.00;-15917.19;5014612;28;51618;-38
2022/12/07 06:14:25;;;;;;;;;32.00;27.50;;;;;-147.17;100.00;-15917.19;5005666;28;51030;-39
2022/12/07 06:16:50;;;;;;;;;30.75;27.75;;;;;-147.17;100.00;-15917.19;5005849;28;51279;-38
2022/12/07 06:19:16;;;;;;;;;32.00;31.50;;;;;-147.17;100.00;-15917.19;5010250;28;51617;-38
2022/12/07 06:21:42;;;;;;;;;28.00;25.50;;;;;-147.17;100.00;-15917.19;5013918;28;51090;-39
2022/12/07 06:24:10;;;;;;;;;30.75;28.25;;;;;-147.17;100.00;-15917.19;5014722;28;50893;-38
2022/12/07 06:26:36;;;;;;;;;28.75;27.75;;;;;-147.17;100.00;-15917.19;5013720;28;50972;-38
2022/12/07 06:29:01;;;;;;;;;29.50;25.50;;;;;-147.17;100.00;-15917.19;5014372;28;51792;-38
2022/12/07 06:31:27;;;;;;;;;33.00;29.50;;;;;-147.17;100.00;-15917.19;5007963;28;51087;-40
2022/12/07 06:34:01;;;;;;;;;29.50;28.25;;;;;-147.17;100.00;-15917.19;4995321;28;51304;-40
2022/12/07 06:36:27;;;;;;;;;27.00;24.75;;;;;-147.17;100.00;-15917.19;5010400;28;51178;-37
2022/12/07 06:38:53;;;;;;;;;31.00;30.00;;;;;-147.17;100.00;-15917.19;5013051;28;51377;-39
2022/12/07 06:41:18;;;;;;;;;25.75;24.75;;;;;-147.17;100.00;-15917.19;5013054;28;51139;-38
2022/12/07 06:43:43;;;;;;;;;32.25;30.00;;;;;-147.17;100.00;-15917.19;5012788;28;51368;-38
2022/12/07 06:46:09;;;;;;;;;28.25;26.25;;;;;-147.17;100.00;-15917.19;5013714;28;50872;-38
2022/12/07 06:48:34;;;;;;;;;32.00;30.25;;;;;-147.17;100.00;-15917.19;5013118;28;52856;-38
2022/12/07 06:51:00;;;;;;;;;20.75;15.75;;;;;-147.17;100.00;-15917.19;5013879;28;50862;-38
2022/12/07 06:53:25;;;;;;;;;30.75;28.25;;;;;-147.17;100.00;-15917.19;5010161;28;51202;-38
2022/12/07 06:55:51;;;;;;;;;37.00;32.25;;;;;-147.17;100.00;-15917.19;5013661;28;50905;-38
2022/12/07 06:58:17;;;;;;;;;35.75;31.50;;;;;-147.17;100.00;-15917.19;5013830;28;51096;-38
2022/12/07 07:00:43;;;;;;;;;32.00;28.00;;;;;-147.17;100.00;-15917.19;5013135;28;50968;-38
2022/12/07 07:03:09;;;;;;;;;33.75;28.50;;;;;-147.17;100.00;-15917.19;5012401;28;51137;-39
2022/12/07 07:05:34;;;;;;;;;28.50;26.75;;;;;-147.17;100.00;-15917.19;5013144;28;51217;-38
2022/12/07 07:08:00;;;;;;;;;29.50;27.50;;;;;-147.17;100.00;-15917.19;5012440;28;51822;-39
2022/12/07 07:10:25;;;;;;;;;30.00;29.00;;;;;-147.17;100.00;-15917.19;5011563;28;51048;-39
2022/12/07 07:12:50;;;;;;;;;28.25;26.50;;;;;-147.17;100.00;-15917.19;5011300;28;51137;-38
2022/12/07 07:15:17;;;;;;;;;33.25;27.00;;;;;-147.17;100.00;-15917.19;5011907;28;51247;-39
2022/12/07 07:17:43;;;;;;;;;34.00;32.75;;;;;-147.17;100.00;-15917.19;5012666;28;52679;-39
2022/12/07 07:20:09;;;;;;;;;37.50;35.25;;;;;-147.17;100.00;-15917.19;5012911;28;51145;-39
2022/12/07 07:22:34;;;;;;;;;37.50;30.75;;;;;-147.17;100.00;-15917.19;5012932;28;50988;-39
2022/12/07 07:24:59;;;;;;;;;30.75;28.75;;;;;-147.17;100.00;-15917.19;5012939;28;51343;-38
2022/12/07 07:27:25;;;;;;;;;34.25;32.00;;;;;-147.17;100.00;-15917.19;5012783;28;52463;-39
2022/12/07 07:29:50;;;;;;;;;34.00;30.00;;;;;-147.17;100.00;-15917.19;5012760;28;50967;-39
2022/12/07 07:32:15;;;;;;;;;30.25;26.25;;;;;-147.17;100.00;-15917.19;5013228;28;51020;-39
2022/12/07 07:34:41;;;;;;;;;25.75;23.50;;;;;-147.17;100.00;-15917.19;5011425;28;50876;-38
2022/12/07 07:37:06;;;;;;;;;27.25;25.75;;;;;-147.17;100.00;-15917.19;5012726;28;51178;-38
2022/12/07 07:39:31;;;;;;;;;21.00;17.50;;;;;-147.17;100.00;-15917.19;5012368;28;51338;-38
2022/12/07 07:41:57;;;;;;;;;31.75;30.50;;;;;-147.17;100.00;-15917.19;5012810;28;50875;-38
2022/12/07 07:44:22;;;;;;;;;28.75;25.25;;;;;-147.17;100.00;-15917.19;5012548;28;51276;-43
2022/12/07 07:46:47;;;;;;;;;28.75;27.50;;;;;-147.17;100.00;-15917.19;5012264;28;51746;-38
2022/12/07 07:49:13;;;;;;;;;30.50;28.00;;;;;-147.17;100.00;-15917.19;5012285;28;51015;-38
2022/12/07 07:51:38;;;;;;;;;29.75;28.25;;;;;-147.17;100.00;-15917.19;5012500;28;51493;-39
2022/12/07 07:54:04;;;;;;;;;30.50;29.50;;;;;-147.17;100.00;-15917.19;5009797;28;51615;-39
2022/12/07 07:56:29;;;;;;;;;28.75;27.50;;;;;-147.17;100.00;-15917.19;5011738;28;51946;-37
2022/12/07 07:58:55;;;;;;;;;40.50;34.00;;;;;-147.17;100.00;-15917.19;5012836;28;51038;-39
2022/12/07 08:01:20;;;;;;;;;35.75;33.25;;;;;-147.17;100.00;-15917.19;5005595;28;51038;-39
2022/12/07 08:03:46;;;;;;;;;24.00;22.25;;;;;-147.17;100.00;-15917.19;5013119;28;51314;-39
2022/12/07 08:06:12;;;;;;;;;37.00;35.25;;;;;-147.17;100.00;-15917.19;5012215;28;51861;-38
2022/12/07 08:08:38;;;;;;;;;42.25;33.50;;;;;-147.17;100.00;-15917.19;5012021;28;51012;-38
2022/12/07 08:11:08;;;;;;;;;31.50;31.50;;;;;-147.17;100.00;-15917.19;5012683;28;51154;-38
2022/12/07 08:13:33;;;;;;;;;33.25;32.00;;;;;-147.17;100.00;-15917.19;5012071;28;51153;-38
2022/12/07 08:16:03;;;;;;;;;30.00;25.50;;;;;-147.17;100.00;-15917.19;5011469;28;51809;-38
2022/12/07 08:18:29;;;;;;;;;23.75;23.75;;;;;-147.17;100.00;-15917.19;4996980;28;51153;-39
2022/12/07 08:21:01;;;;;;;;;30.50;24.50;;;;;-147.17;100.00;-15917.19;5012041;28;51194;-39
2022/12/07 08:23:27;;;;;;;;;26.75;26.75;;;;;-147.17;100.00;-15917.19;5012654;28;51671;-38
2022/12/07 08:25:53;;;;;;;;;34.25;32.00;;;;;-147.17;100.00;-15917.19;5012365;28;52122;-39
2022/12/07 08:28:18;;;;;;;;;32.25;29.75;;;;;-147.17;100.00;-15917.19;5012270;28;51049;-39
2022/12/07 08:30:43;;;;;;;;;30.75;29.75;;;;;-147.17;100.00;-15917.19;5012142;28;51008;-39
2022/12/07 08:33:10;;;;;;;;;30.25;28.25;;;;;-147.17;100.00;-15917.19;5009340;28;51038;-39
2022/12/07 08:35:35;;;;;;;;;31.00;30.25;;;;;-147.17;100.00;-15917.19;5007166;28;52160;-39
2022/12/07 08:38:02;;;;;;;;;32.25;27.25;;;;;-147.17;100.00;-15917.19;5005918;28;51285;-39
2022/12/07 08:40:28;;;;;;;;;23.75;22.00;;;;;-147.17;100.00;-15917.19;5012208;28;50928;-39
2022/12/07 08:42:53;;;;;;;;;34.25;30.00;;;;;-147.17;100.00;-15917.19;5012478;28;50840;-39
2022/12/07 08:45:20;;;;;;;;;30.50;29.00;;;;;-147.17;100.00;-15917.19;5013306;28;51088;-39
2022/12/07 08:48:02;;;;;;;;;23.00;21.50;;;;;-147.17;100.00;-15917.19;4997680;28;51167;-39
2022/12/07 08:50:28;;;;;;;;;24.00;22.75;;;;;-147.17;100.00;-15917.19;5016146;28;51055;-39
2022/12/07 08:52:57;;;;;;;;;29.75;28.25;;;;;-147.17;100.00;-15917.19;5011627;28;51204;-39
2022/12/07 08:55:23;;;;;;;;;24.50;23.75;;;;;-147.17;100.00;-15917.19;5015769;28;51039;-39
2022/12/07 08:57:49;;;;;;;;;31.50;27.50;;;;;-147.17;100.00;-15917.19;4997843;28;51097;-39
2022/12/07 09:00:16;;;;;;;;;29.25;27.00;;;;;-147.17;100.00;-15917.19;5015755;28;50978;-39
2022/12/07 09:02:44;;;;;;;;;30.75;25.00;;;;;-147.17;100.00;-15917.19;5007317;28;51188;-39
2022/12/07 09:05:10;;;;;;;;;28.00;26.25;;;;;-147.17;100.00;-15917.19;5010844;28;51006;-39
2022/12/07 09:07:37;;;;;;;;;27.50;25.75;;;;;-147.17;100.00;-15917.19;5015344;28;50985;-39
2022/12/07 09:10:03;;;;;;;;;25.25;23.75;;;;;-147.17;100.00;-15917.19;5015333;28;51027;-38
2022/12/07 09:12:29;;;;;;;;;24.25;23.50;;;;;-147.17;100.00;-15917.19;5015711;28;51324;-38
2022/12/07 09:14:54;;;;;;;;;25.25;24.75;;;;;-147.17;100.00;-15917.19;5015077;28;50975;-38
2022/12/07 09:17:19;;;;;;;;;25.25;22.00;;;;;-147.17;100.00;-15917.19;5007648;28;51005;-39
2022/12/07 09:19:45;;;;;;;;;29.00;27.50;;;;;-147.17;100.00;-15917.19;5015149;28;50944;-38
2022/12/07 09:22:10;;;;;;;;;45.25;40.00;;;;;-147.17;100.00;-15917.19;5015411;28;51127;-38
2022/12/07 09:24:36;;;;;;;;;29.25;28.25;;;;;-147.17;100.00;-15917.19;5014821;28;52065;-39
2022/12/07 09:27:01;;;;;;;;;27.00;26.00;;;;;-147.17;100.00;-15917.19;5015339;28;51022;-39
2022/12/07 09:29:26;;;;;;;;;28.00;27.25;;;;;-147.17;100.00;-15917.19;5014787;28;50794;-38
2022/12/07 09:31:52;;;;;;;;;32.25;27.25;;;;;-147.17;100.00;-15917.19;5011973;28;51031;-39
2022/12/07 09:34:18;;;;;;;;;33.75;31.50;;;;;-147.17;100.00;-15917.19;5012402;28;51911;-38
2022/12/07 09:36:44;;;;;;;;;25.00;24.00;;;;;-147.17;100.00;-15917.19;5014939;28;51306;-39
2022/12/07 09:39:10;;;;;;;;;22.75;22.75;;;;;-147.17;100.00;-15917.19;5014810;28;50995;-39
2022/12/07 09:41:40;;;;;;;;;24.25;23.50;;;;;-147.17;100.00;-15917.19;5015077;28;51390;-39
2022/12/07 09:44:12;;;;;;;;;29.75;28.50;;;;;-147.17;100.00;-15917.19;5014803;28;51314;-39
2022/12/07 09:46:40;;;;;;;;;27.25;24.25;;;;;-147.17;100.00;-15917.19;5014731;28;51070;-39
2022/12/07 09:49:12;;;;;;;;;29.25;27.50;;;;;-147.17;100.00;-15917.19;5014799;28;51005;-39
2022/12/07 09:51:38;;;;;;;;;27.50;24.00;;;;;-147.17;100.00;-15917.19;5015017;28;51124;-39
2022/12/07 09:54:03;;;;;;;;;25.25;23.50;;;;;-147.17;100.00;-15917.19;5010112;28;51165;-39
2022/12/07 09:56:30;;;;;;;;;30.75;30.25;;;;;-147.17;100.00;-15917.19;5003673;28;50896;-39
2022/12/07 09:59:02;;;;;;;;;34.25;28.00;;;;;-147.17;100.00;-15917.19;5014373;28;51138;-39
2022/12/07 10:01:33;;;;;;;;;30.00;28.25;;;;;-147.17;100.00;-15917.19;5014404;28;51323;-39
2022/12/07 10:04:21;;;;;;;;;33.00;29.75;;;;;-147.17;100.00;-15917.19;5014141;28;51894;-39
2022/12/07 10:06:47;;;;;;;;;35.00;31.25;;;;;-147.17;100.00;-15917.19;5014295;28;51221;-38
2022/12/07 10:09:17;;;;;;;;;38.25;33.00;;;;;-147.17;100.00;-15917.19;5014458;28;51025;-38
2022/12/07 10:12:02;;;;;;;;;31.50;30.50;;;;;-147.17;100.00;-15917.19;5014591;28;50956;-39
2022/12/07 10:14:30;;;;;;;;;37.75;35.00;;;;;-147.17;100.00;-15917.19;5014032;28;51291;-39
2022/12/07 10:16:56;;;;;;;;;33.25;31.00;;;;;-147.17;100.00;-15917.19;5006055;28;51156;-39
2022/12/07 10:19:31;;;;;;;;;35.50;35.50;;;;;-147.17;100.00;-15917.19;5014489;28;51044;-38
2022/12/07 10:22:00;;;;;;;;;33.75;32.25;;;;;-147.17;100.00;-15917.19;5014465;28;51125;-39
2022/12/07 10:24:26;;;;;;;;;26.50;23.75;;;;;-147.17;100.00;-15917.19;5014182;28;51020;-39
2022/12/07 10:26:52;;;;;;;;;29.50;28.50;;;;;-147.17;100.00;-15917.19;5013875;28;51109;-38
2022/12/07 10:29:46;;;;;;;;;33.25;28.25;;;;;-147.17;100.00;-15917.19;5014241;28;50913;-39
2022/12/07 10:32:14;;;;;;;;;34.50;29.50;;;;;-147.17;100.00;-15917.19;5014171;28;51144;-39
2022/12/07 10:34:41;;;;;;;;;39.50;32.75;;;;;-147.17;100.00;-15917.19;5013793;28;51955;-39
2022/12/07 10:37:12;;;;;;;;;35.50;29.50;;;;;-147.17;100.00;-15917.19;5014164;28;51136;-39
2022/12/07 10:39:55;;;;;;;;;33.00;29.00;;;;;-147.17;100.00;-15917.19;5013847;28;51260;-39
2022/12/07 10:42:27;;;;;;;;;33.75;30.25;;;;;-147.17;100.00;-15917.19;5013954;28;51316;-37
2022/12/07 10:45:11;;;;;;;;;32.75;29.75;;;;;-147.17;100.00;-15917.19;5013399;28;51409;-38
2022/12/07 10:47:43;;;;;;;;;31.75;29.25;;;;;-147.17;100.00;-15917.19;5013327;28;51102;-38
2022/12/07 10:50:33;;;;;;;;;32.75;29.25;;;;;-147.17;100.00;-15917.19;5013812;28;51088;-38
2022/12/07 10:53:23;;;;;;;;;41.25;34.75;;;;;-147.17;100.00;-15917.19;5012625;28;50848;-39
2022/12/07 10:56:06;;;;;;;;;32.25;31.50;;;;;-147.17;100.00;-15917.19;5013492;28;51686;-38
2022/12/07 10:58:53;;;;;;;;;32.00;29.50;;;;;-147.17;100.00;-15917.19;5013687;28;50928;-43